Time;durP1;ratioP1;P1;durP2;ratioP2;P2;SDS_P1;SDS_P2;PMS_P1;PMS_P2;Temp;Humidity;BMP_temperature;BMP_pressure;BME280_temperature;BME280_humidity;BME280_pressure;Samples;Min_cycle;Max_cycle;Signal;HPM_P1;HPM_P2
2022/04/21 00:00:32;;;;;;;0.40;0.40;;;10.00;99.90;;;;;;4430475;32;20491;-68
2022/04/21 00:02:58;;;;;;;0.40;0.40;;;9.90;99.90;;;;;;4429367;32;20073;-68
2022/04/21 00:05:24;;;;;;;0.40;0.40;;;9.80;99.90;;;;;;4430054;32;20081;-68
2022/04/21 00:07:50;;;;;;;0.30;0.30;;;9.60;99.90;;;;;;4427451;32;20096;-68
2022/04/21 00:10:16;;;;;;;0.50;0.50;;;9.70;99.90;;;;;;4426076;32;20485;-68
2022/04/21 00:12:42;;;;;;;0.70;0.70;;;9.80;99.90;;;;;;4428416;32;20183;-68
2022/04/21 00:15:08;;;;;;;0.93;0.70;;;9.70;99.90;;;;;;4429822;32;20079;-68
2022/04/21 00:17:34;;;;;;;10.15;0.90;;;9.70;99.90;;;;;;4427887;32;20090;-68
2022/04/21 00:20:00;;;;;;;1.27;1.17;;;9.80;99.90;;;;;;4425587;32;20073;-68
2022/04/21 00:23:26;;;;;;;5.20;0.70;;;9.90;99.90;;;;;;4430234;32;20073;-68
2022/04/21 00:25:12;;;;;;;0.50;0.50;;;9.90;99.90;;;;;;4417675;32;20096;-68
2022/04/21 00:27:38;;;;;;;1.45;0.40;;;9.90;99.90;;;;;;4428763;32;20131;-68
2022/04/21 00:30:06;;;;;;;0.40;0.40;;;9.90;99.90;;;;;;4428942;32;20081;-68
2022/04/21 00:32:33;;;;;;;0.75;0.75;;;10.10;99.90;;;;;;4431365;32;20068;-68
2022/04/21 00:34:58;;;;;;;5.93;1.83;;;10.00;99.90;;;;;;4428197;32;20101;-68
2022/04/21 00:37:24;;;;;;;0.45;0.45;;;10.10;99.90;;;;;;4428964;32;20081;-68
2022/04/21 00:39:50;;;;;;;0.40;0.40;;;9.90;99.90;;;;;;4426725;32;20065;-68
2022/04/21 00:42:15;;;;;;;0.47;0.47;;;9.90;99.90;;;;;;4429070;32;20073;-68
2022/04/21 00:44:41;;;;;;;0.50;0.50;;;9.80;99.90;;;;;;4429910;32;20081;-68
2022/04/21 00:47:07;;;;;;;0.45;0.45;;;9.80;99.90;;;;;;4426182;32;20668;-68
2022/04/21 00:49:34;;;;;;;3.33;0.75;;;9.80;99.90;;;;;;4430234;32;20529;-68
2022/04/21 00:52:01;;;;;;;0.90;0.75;;;9.80;99.90;;;;;;4427975;32;20065;-68
2022/04/21 00:54:30;;;;;;;0.40;0.40;;;9.80;99.90;;;;;;4427809;32;20117;-68
2022/04/21 00:56:56;;;;;;;1.67;0.62;;;9.70;99.90;;;;;;4428277;32;20093;-68
2022/04/21 00:59:22;;;;;;;0.30;0.30;;;9.70;99.90;;;;;;4427834;32;20427;-68
2022/04/21 01:02:50;;;;;;;0.30;0.30;;;9.80;99.90;;;;;;4428487;32;20065;-68
2022/04/21 01:04:34;;;;;;;0.22;0.22;;;9.80;99.90;;;;;;4422841;32;20073;-68
2022/04/21 01:07:00;;;;;;;0.77;0.77;;;9.90;99.90;;;;;;4429078;32;20525;-68
2022/04/21 01:09:26;;;;;;;1.90;0.43;;;9.80;99.90;;;;;;4429219;32;20094;-68
2022/04/21 01:11:51;;;;;;;0.82;0.55;;;9.70;99.90;;;;;;4425341;32;20081;-68
2022/04/21 01:14:17;;;;;;;0.40;0.40;;;9.60;99.90;;;;;;4430768;32;20473;-68
2022/04/21 01:16:43;;;;;;;0.40;0.40;;;9.60;99.90;;;;;;4431023;32;20070;-68
2022/04/21 01:19:09;;;;;;;10.02;0.60;;;9.60;99.90;;;;;;4428973;32;20074;-68
2022/04/21 01:21:35;;;;;;;0.30;0.30;;;9.60;99.90;;;;;;4427064;32;20545;-68
2022/04/21 01:24:01;;;;;;;3.55;0.60;;;9.60;99.90;;;;;;4429061;32;20105;-68
2022/04/21 01:26:30;;;;;;;0.50;0.50;;;9.50;99.90;;;;;;4428064;32;20066;-68
2022/04/21 01:28:55;;;;;;;4.70;1.40;;;9.50;99.90;;;;;;4429186;32;20466;-68
2022/04/21 01:31:22;;;;;;;0.30;0.30;;;9.50;99.90;;;;;;4424779;32;20077;-68
2022/04/21 01:33:47;;;;;;;0.85;0.85;;;9.50;99.90;;;;;;4426864;32;20086;-69
2022/04/21 01:36:13;;;;;;;1.90;1.23;;;9.60;99.90;;;;;;4430145;32;20070;-68
2022/04/21 01:41:09;;;;;;;6.03;0.73;;;9.50;99.90;;;;;;4429930;32;20403;-68
2022/04/21 01:41:24;;;;;;;0.32;0.32;;;9.50;99.90;;;;;;4424264;32;20069;-68
2022/04/21 01:43:49;;;;;;;0.60;0.60;;;9.50;99.90;;;;;;4427415;32;20093;-67
2022/04/21 01:46:15;;;;;;;0.45;0.45;;;9.50;99.90;;;;;;4426652;32;20074;-68
2022/04/21 01:48:41;;;;;;;2.22;1.35;;;9.50;99.90;;;;;;4428756;32;20104;-67
2022/04/21 01:51:07;;;;;;;0.40;0.40;;;9.40;99.90;;;;;;4431915;32;20093;-67
2022/04/21 01:53:32;;;;;;;2.83;0.60;;;9.40;99.90;;;;;;4430852;32;20073;-67
2022/04/21 01:55:58;;;;;;;1.60;0.60;;;9.40;99.90;;;;;;4431566;32;20414;-67
2022/04/21 01:58:23;;;;;;;0.40;0.40;;;9.30;99.90;;;;;;4429669;32;20124;-67
2022/04/21 02:00:49;;;;;;;0.50;0.50;;;9.30;99.90;;;;;;4428869;32;20057;-69
2022/04/21 02:03:14;;;;;;;0.55;0.55;;;9.30;99.90;;;;;;4429382;32;20072;-69
2022/04/21 02:05:40;;;;;;;0.28;0.28;;;9.40;99.90;;;;;;4433708;32;20073;-69
2022/04/21 02:08:05;;;;;;;1.25;0.55;;;9.30;99.90;;;;;;4430855;32;20084;-69
2022/04/21 02:10:31;;;;;;;0.37;0.37;;;9.40;99.90;;;;;;4427843;32;20088;-68
2022/04/21 02:12:57;;;;;;;0.30;0.30;;;9.30;99.90;;;;;;4430197;32;20069;-69
2022/04/21 02:15:23;;;;;;;0.30;0.30;;;9.30;99.90;;;;;;4430019;32;20073;-69
2022/04/21 02:17:49;;;;;;;0.40;0.40;;;9.30;99.90;;;;;;4432280;32;20131;-69
2022/04/21 02:20:16;;;;;;;0.90;0.90;;;9.40;99.90;;;;;;4428332;32;20093;-69
2022/04/21 02:22:43;;;;;;;0.50;0.50;;;9.40;99.90;;;;;;4429102;32;20076;-69
2022/04/21 02:25:10;;;;;;;0.30;0.30;;;9.30;99.90;;;;;;4429454;32;20124;-69
2022/04/21 02:27:37;;;;;;;1.83;1.23;;;9.30;99.90;;;;;;4432263;32;20497;-69
2022/04/21 02:30:04;;;;;;;0.35;0.35;;;9.20;99.90;;;;;;4431822;32;20505;-68
2022/04/21 02:32:29;;;;;;;0.37;0.37;;;9.20;99.90;;;;;;4429992;32;20426;-68
2022/04/21 02:34:55;;;;;;;0.43;0.43;;;9.10;99.90;;;;;;4432690;32;20127;-68
2022/04/21 02:37:22;;;;;;;0.30;0.30;;;9.30;99.90;;;;;;4433732;32;20570;-68
2022/04/21 02:39:49;;;;;;;0.70;0.65;;;9.40;99.90;;;;;;4431500;32;20081;-68
2022/04/21 02:42:15;;;;;;;0.30;0.30;;;9.40;99.90;;;;;;4430616;32;20084;-68
2022/04/21 02:44:41;;;;;;;0.50;0.50;;;9.40;99.90;;;;;;4429105;32;20426;-68
2022/04/21 02:47:07;;;;;;;1.20;0.68;;;9.40;99.90;;;;;;4431336;32;20136;-68
2022/04/21 02:49:35;;;;;;;3.22;1.15;;;9.30;99.90;;;;;;4432963;32;20065;-68
2022/04/21 02:52:01;;;;;;;1.67;0.40;;;9.20;99.90;;;;;;4431157;32;20072;-68
2022/04/21 02:57:27;;;;;;;0.50;0.50;;;9.20;99.90;;;;;;4432385;32;20073;-68
2022/04/21 02:59:54;;;;;;;;;;;9.20;99.90;;;;;;4431838;32;20517;-68
2022/04/21 03:02:20;;;;;;;0.88;0.82;;;9.30;99.90;;;;;;4428222;32;19952;-68
2022/04/21 03:04:46;;;;;;;0.57;0.52;;;9.20;99.90;;;;;;4430374;32;20064;-68
2022/04/21 03:07:13;;;;;;;4.78;0.62;;;9.20;99.90;;;;;;4434274;32;20541;-69
2022/04/21 03:09:40;;;;;;;1.23;1.12;;;9.20;99.90;;;;;;4430984;32;20520;-69
2022/04/21 03:12:07;;;;;;;0.50;0.50;;;9.20;99.90;;;;;;4433425;32;20190;-69
2022/04/21 03:14:36;;;;;;;1.20;0.95;;;9.20;99.90;;;;;;4430861;32;20567;-68
2022/04/21 03:17:02;;;;;;;1.60;1.40;;;9.30;99.90;;;;;;4427793;32;20610;-68
2022/04/21 03:19:27;;;;;;;0.30;0.30;;;9.20;99.90;;;;;;4432145;32;20065;-68
2022/04/21 03:24:24;;;;;;;0.43;0.43;;;9.10;99.90;;;;;;4427468;32;20444;-68
2022/04/21 03:24:38;;;;;;;0.30;0.30;;;9.10;99.90;;;;;;4425971;32;20057;-68
2022/04/21 03:27:04;;;;;;;1.15;0.70;;;9.10;99.90;;;;;;4428555;32;20073;-68
2022/04/21 03:29:30;;;;;;;0.57;0.57;;;9.00;99.90;;;;;;4430473;32;20057;-68
2022/04/21 03:31:55;;;;;;;0.40;0.40;;;9.00;99.90;;;;;;4431020;32;20073;-68
2022/04/21 03:34:21;;;;;;;1.10;0.50;;;9.00;99.90;;;;;;4428759;32;20132;-68
2022/04/21 03:36:49;;;;;;;0.40;0.40;;;9.10;99.90;;;;;;4431422;32;20076;-68
2022/04/21 03:39:16;;;;;;;0.98;0.43;;;9.10;99.90;;;;;;4427827;32;20098;-68
2022/04/21 03:41:42;;;;;;;0.60;0.60;;;9.10;99.90;;;;;;4429748;32;20327;-69
2022/04/21 03:44:07;;;;;;;0.50;0.50;;;9.10;99.90;;;;;;4433633;32;20077;-68
2022/04/21 03:46:33;;;;;;;0.55;0.50;;;9.20;99.90;;;;;;4429512;32;20060;-68
2022/04/21 03:48:59;;;;;;;10.52;0.95;;;9.20;99.90;;;;;;4427604;32;20601;-68
2022/04/21 03:51:27;;;;;;;0.43;0.43;;;9.20;99.90;;;;;;4429557;32;20114;-68
2022/04/21 03:53:53;;;;;;;0.47;0.47;;;9.10;99.90;;;;;;4426254;32;20124;-69
2022/04/21 03:56:19;;;;;;;0.62;0.62;;;9.20;99.90;;;;;;4428827;32;20506;-68
2022/04/21 03:58:45;;;;;;;0.52;0.52;;;9.30;99.90;;;;;;4428259;32;20065;-68
2022/04/21 04:01:10;;;;;;;0.50;0.50;;;9.10;99.90;;;;;;4429567;32;20076;-68
2022/04/21 04:03:35;;;;;;;0.82;0.82;;;9.10;99.90;;;;;;4429995;32;20565;-68
2022/04/21 04:06:01;;;;;;;0.52;0.50;;;9.10;99.90;;;;;;4427864;32;20991;-68
2022/04/21 04:10:54;;;;;;;0.85;0.60;;;9.10;99.90;;;;;;4431876;32;20072;-68
2022/04/21 04:11:12;;;;;;;0.90;0.85;;;9.20;99.90;;;;;;4426992;32;20084;-69
2022/04/21 04:13:37;;;;;;;0.50;0.50;;;9.10;99.90;;;;;;4428163;32;20119;-68
2022/04/21 04:16:03;;;;;;;0.57;0.57;;;9.10;99.90;;;;;;4429684;32;20064;-68
2022/04/21 04:18:29;;;;;;;0.43;0.43;;;9.10;99.90;;;;;;4429844;32;20580;-68
2022/04/21 04:20:54;;;;;;;0.40;0.40;;;9.10;99.90;;;;;;4429898;32;20082;-68
2022/04/21 04:23:21;;;;;;;0.60;0.60;;;9.10;99.90;;;;;;4429280;32;20076;-68
2022/04/21 04:25:47;;;;;;;0.73;0.70;;;9.20;99.90;;;;;;4429533;32;20077;-69
2022/04/21 04:28:13;;;;;;;0.73;0.73;;;9.20;99.90;;;;;;4428768;32;20126;-68
2022/04/21 04:30:39;;;;;;;0.47;0.40;;;9.00;99.90;;;;;;4425396;32;20090;-68
2022/04/21 04:33:05;;;;;;;1.02;0.52;;;9.00;99.90;;;;;;4427245;32;20061;-68
2022/04/21 04:35:31;;;;;;;0.40;0.40;;;9.00;99.90;;;;;;4428413;32;20086;-68
2022/04/21 04:37:57;;;;;;;0.60;0.60;;;9.10;99.90;;;;;;4429378;32;20061;-68
2022/04/21 04:40:23;;;;;;;3.00;0.93;;;9.00;99.90;;;;;;4427946;32;20120;-68
2022/04/21 04:42:49;;;;;;;0.52;0.52;;;9.00;99.90;;;;;;4428865;32;20065;-68
2022/04/21 04:46:45;;;;;;;0.88;0.82;;;9.00;99.90;;;;;;4433274;32;20069;-68
2022/04/21 04:48:00;;;;;;;0.45;0.45;;;9.00;99.90;;;;;;4418335;32;20148;-68
2022/04/21 04:50:25;;;;;;;2.55;1.45;;;9.10;99.90;;;;;;4433251;32;20607;-68
2022/04/21 04:52:58;;;;;;;2.10;0.47;;;9.10;99.90;;;;;;4430568;32;20061;-69
2022/04/21 04:55:24;;;;;;;0.40;0.40;;;9.00;99.90;;;;;;4427428;32;20432;-68
2022/04/21 04:57:50;;;;;;;7.87;0.88;;;8.90;99.90;;;;;;4428125;32;20094;-68
2022/04/21 05:00:16;;;;;;;0.70;0.70;;;8.90;99.90;;;;;;4431889;32;20073;-68
2022/04/21 05:02:41;;;;;;;1.75;0.80;;;8.90;99.90;;;;;;4428372;32;20547;-68
2022/04/21 05:05:08;;;;;;;1.65;0.52;;;8.90;99.90;;;;;;4427298;32;20077;-68
2022/04/21 05:07:35;;;;;;;0.35;0.35;;;8.90;99.90;;;;;;4427640;32;20061;-69
2022/04/21 05:10:00;;;;;;;0.40;0.40;;;8.80;99.90;;;;;;4425885;32;20061;-69
2022/04/21 05:12:26;;;;;;;0.43;0.43;;;8.90;99.90;;;;;;4424040;32;20077;-67
2022/04/21 05:14:52;;;;;;;1.08;0.68;;;8.90;99.90;;;;;;4419210;32;20086;-69
2022/04/21 05:17:18;;;;;;;5.35;1.15;;;8.90;99.90;;;;;;4423643;32;20489;-68
2022/04/21 05:19:44;;;;;;;0.47;0.47;;;8.90;99.90;;;;;;4423102;32;20073;-68
2022/04/21 05:22:12;;;;;;;0.30;0.30;;;8.80;99.90;;;;;;4428402;32;20101;-68
2022/04/21 05:24:39;;;;;;;0.30;0.30;;;8.90;99.90;;;;;;4427424;32;20443;-68
2022/04/21 05:27:05;;;;;;;2.12;1.27;;;8.90;99.90;;;;;;4429629;32;20074;-68
2022/04/21 05:31:02;;;;;;;2.95;0.75;;;8.90;99.90;;;;;;4432163;32;20097;-68
2022/04/21 05:32:18;;;;;;;0.55;0.50;;;8.90;99.90;;;;;;4423887;32;20576;-68
2022/04/21 05:34:44;;;;;;;1.08;0.73;;;9.00;99.90;;;;;;4430943;32;20431;-68
2022/04/21 05:37:10;;;;;;;2.80;1.42;;;9.00;99.90;;;;;;4432986;32;20073;-68
2022/04/21 05:39:36;;;;;;;0.30;0.30;;;8.90;99.90;;;;;;4433069;32;20089;-68
2022/04/21 05:42:05;;;;;;;14.05;1.05;;;8.90;99.90;;;;;;4424579;32;20358;-68
2022/04/21 05:44:31;;;;;;;2.25;0.90;;;8.90;99.90;;;;;;4426563;32;20463;-68
2022/04/21 05:46:57;;;;;;;0.60;0.60;;;8.90;99.90;;;;;;4431063;32;20454;-68
2022/04/21 05:49:24;;;;;;;4.75;0.70;;;8.80;99.90;;;;;;4430646;32;20064;-68
2022/04/21 05:51:51;;;;;;;1.65;0.70;;;8.90;99.90;;;;;;4429485;32;20069;-69
2022/04/21 05:54:17;;;;;;;0.40;0.40;;;8.90;99.90;;;;;;4428910;32;20533;-68
2022/04/21 05:56:43;;;;;;;3.10;1.45;;;9.00;99.90;;;;;;4431209;32;20156;-68
2022/04/21 05:59:09;;;;;;;1.08;0.45;;;9.00;99.90;;;;;;4430318;32;20097;-68
2022/04/21 06:01:35;;;;;;;0.82;0.65;;;9.10;99.90;;;;;;4430197;32;20163;-68
2022/04/21 06:04:00;;;;;;;1.25;0.52;;;9.00;99.90;;;;;;4430701;32;20127;-68
2022/04/21 06:06:26;;;;;;;0.40;0.40;;;9.10;99.90;;;;;;4430674;32;20057;-68
2022/04/21 06:08:51;;;;;;;1.00;0.95;;;9.10;99.90;;;;;;4431574;32;20081;-68
2022/04/21 06:11:17;;;;;;;0.35;0.35;;;9.10;99.90;;;;;;4427815;32;20069;-68
2022/04/21 06:13:42;;;;;;;0.80;0.57;;;9.00;99.90;;;;;;4423072;32;20081;-68
2022/04/21 06:16:09;;;;;;;0.50;0.50;;;9.00;99.90;;;;;;4430794;32;20077;-68
2022/04/21 06:18:36;;;;;;;0.35;0.35;;;9.00;99.90;;;;;;4430469;32;20172;-68
2022/04/21 06:21:03;;;;;;;0.50;0.50;;;9.10;99.90;;;;;;4431919;32;20085;-68
2022/04/21 06:23:30;;;;;;;6.82;0.88;;;9.10;99.90;;;;;;4430956;32;20073;-68
2022/04/21 06:25:59;;;;;;;0.50;0.50;;;9.10;99.90;;;;;;4432088;32;20073;-68
2022/04/21 06:28:25;;;;;;;3.25;0.90;;;9.10;99.90;;;;;;4433418;32;20141;-68
2022/04/21 06:30:51;;;;;;;3.85;0.57;;;9.10;99.90;;;;;;4427810;32;20073;-68
2022/04/21 06:33:17;;;;;;;0.40;0.40;;;9.10;99.90;;;;;;4431348;32;20131;-68
2022/04/21 06:35:44;;;;;;;0.50;0.50;;;9.20;99.90;;;;;;4431795;32;20069;-68
2022/04/21 06:38:10;;;;;;;5.18;1.00;;;9.30;99.90;;;;;;4429701;32;20516;-68
2022/04/21 06:40:35;;;;;;;0.45;0.45;;;9.30;99.90;;;;;;4432109;32;20131;-68
2022/04/21 06:43:03;;;;;;;3.95;1.40;;;9.30;99.90;;;;;;4421458;32;20089;-68
2022/04/21 06:48:14;;;;;;;1.65;0.50;;;9.40;99.90;;;;;;4424508;32;20077;-68
2022/04/21 06:50:40;;;;;;;0.70;0.70;;;9.50;99.90;;;;;;4428764;32;20504;-68
2022/04/21 06:53:08;;;;;;;0.50;0.50;;;9.60;99.90;;;;;;4425385;32;20124;-68
2022/04/21 06:55:34;;;;;;;2.83;1.37;;;9.40;99.90;;;;;;4431970;32;20566;-68
2022/04/21 06:58:01;;;;;;;0.88;0.70;;;9.60;99.90;;;;;;4429440;32;20073;-68
2022/04/21 07:00:27;;;;;;;0.80;0.80;;;9.60;99.90;;;;;;4431980;32;20176;-68
2022/04/21 07:02:55;;;;;;;0.65;0.65;;;9.70;99.90;;;;;;4428173;32;20480;-68
2022/04/21 07:05:22;;;;;;;1.00;0.70;;;9.80;99.90;;;;;;4431483;32;20491;-68
2022/04/21 07:07:48;;;;;;;0.40;0.40;;;9.70;99.90;;;;;;4427928;32;20714;-68
2022/04/21 07:10:14;;;;;;;0.40;0.40;;;9.70;99.90;;;;;;4426640;32;20583;-68
2022/04/21 07:12:40;;;;;;;6.22;0.93;;;9.80;99.90;;;;;;4418903;32;20504;-68
2022/04/21 07:15:08;;;;;;;0.70;0.62;;;9.80;99.90;;;;;;4431980;32;20077;-68
2022/04/21 07:17:35;;;;;;;0.73;0.68;;;9.80;99.90;;;;;;4430839;32;20084;-69
2022/04/21 07:20:02;;;;;;;0.50;0.50;;;9.90;99.90;;;;;;4430777;32;20072;-68
2022/04/21 07:22:29;;;;;;;1.00;0.77;;;10.00;99.90;;;;;;4429514;32;20092;-68
2022/04/21 07:24:56;;;;;;;1.85;0.65;;;10.00;99.90;;;;;;4433228;32;20097;-68
2022/04/21 07:27:22;;;;;;;6.32;0.73;;;10.00;99.90;;;;;;4432288;32;20471;-69
2022/04/21 07:29:48;;;;;;;0.40;0.40;;;10.10;99.90;;;;;;4430693;32;20104;-68
2022/04/21 07:32:13;;;;;;;0.32;0.32;;;10.20;99.90;;;;;;4430296;32;20066;-69
2022/04/21 07:34:39;;;;;;;0.50;0.50;;;10.20;99.90;;;;;;4431505;32;20094;-68
2022/04/21 07:37:07;;;;;;;0.95;0.85;;;10.10;99.90;;;;;;4425826;32;105026;-68
2022/04/21 07:39:32;;;;;;;0.98;0.60;;;10.20;99.90;;;;;;4428518;32;20489;-68
2022/04/21 07:41:58;;;;;;;1.73;0.90;;;10.20;99.90;;;;;;4422987;32;20077;-68
2022/04/21 07:44:25;;;;;;;0.45;0.45;;;10.10;99.90;;;;;;4422775;32;20520;-68
2022/04/21 07:46:51;;;;;;;7.32;0.70;;;10.10;99.90;;;;;;4432656;32;20076;-68
2022/04/21 07:49:48;;;;;;;0.50;0.50;;;10.10;99.90;;;;;;4428472;32;20431;-68
2022/04/21 07:53:19;;;;;;;0.50;0.50;;;10.20;99.90;;;;;;4418782;32;20073;-68
2022/04/21 07:54:47;;;;;;;6.93;0.70;;;10.30;99.90;;;;;;4421054;32;20524;-68
2022/04/21 07:57:13;;;;;;;0.90;0.82;;;10.30;99.90;;;;;;4427548;32;20092;-68
2022/04/21 07:59:38;;;;;;;0.40;0.40;;;10.40;99.90;;;;;;4430769;32;20600;-68
2022/04/21 08:02:06;;;;;;;0.50;0.50;;;10.40;99.90;;;;;;4432632;32;20509;-69
2022/04/21 08:04:32;;;;;;;0.30;0.30;;;10.30;99.90;;;;;;4434585;32;20681;-68
2022/04/21 08:06:57;;;;;;;1.45;0.65;;;10.40;99.90;;;;;;4431545;32;20289;-68
2022/04/21 08:09:23;;;;;;;0.40;0.40;;;10.40;99.90;;;;;;4429122;32;20512;-68
2022/04/21 08:11:49;;;;;;;1.75;0.43;;;10.40;99.90;;;;;;4425488;32;20064;-68
2022/04/21 08:14:16;;;;;;;6.35;1.55;;;10.40;99.90;;;;;;4423035;32;20504;-68
2022/04/21 08:16:42;;;;;;;13.52;0.82;;;10.40;99.90;;;;;;4430929;32;20056;-68
2022/04/21 08:19:08;;;;;;;1.52;0.93;;;10.40;99.90;;;;;;4430703;32;20081;-68
2022/04/21 08:21:34;;;;;;;3.30;1.02;;;10.40;99.90;;;;;;4427784;32;20057;-68
2022/04/21 08:32:33;;;;;;;1.65;0.98;;;10.50;99.90;;;;;;4428688;32;20584;-69
2022/04/21 08:32:33;;;;;;;0.45;0.45;;;10.50;99.90;;;;;;4421907;32;20077;-68
2022/04/21 08:32:47;;;;;;;4.30;0.85;;;10.50;99.90;;;;;;4428367;32;20086;-68
2022/04/21 08:35:02;;;;;;;0.35;0.35;;;10.40;99.90;;;;;;4415819;32;20478;-68
2022/04/21 08:37:27;;;;;;;0.57;0.57;;;10.30;99.90;;;;;;4425295;32;20077;-68
2022/04/21 08:39:55;;;;;;;1.95;0.90;;;10.30;99.90;;;;;;4430157;32;20120;-68
2022/04/21 08:42:21;;;;;;;0.50;0.50;;;10.40;99.90;;;;;;4422457;32;20085;-69
2022/04/21 08:44:49;;;;;;;1.37;1.08;;;10.40;99.90;;;;;;4429731;32;20081;-68
2022/04/21 08:47:18;;;;;;;0.50;0.50;;;10.60;99.90;;;;;;4428349;32;20069;-68
2022/04/21 08:49:48;;;;;;;0.30;0.30;;;10.60;99.90;;;;;;4428878;32;20073;-68
2022/04/21 08:52:14;;;;;;;0.50;0.50;;;10.60;99.90;;;;;;4431053;32;20073;-68
2022/04/21 08:54:41;;;;;;;0.65;0.65;;;10.70;99.90;;;;;;4430569;32;20084;-68
2022/04/21 08:57:09;;;;;;;0.50;0.50;;;10.80;99.90;;;;;;4430632;32;20073;-68
2022/04/21 08:59:34;;;;;;;1.77;0.93;;;10.80;99.90;;;;;;4434301;32;20069;-68
2022/04/21 09:02:00;;;;;;;2.72;0.90;;;10.90;99.90;;;;;;4432155;32;20069;-69
2022/04/21 09:04:25;;;;;;;0.57;0.57;;;11.10;99.90;;;;;;4429997;32;20085;-68
2022/04/21 09:06:51;;;;;;;1.15;1.05;;;11.30;99.90;;;;;;4433307;32;20064;-68
2022/04/21 09:09:21;;;;;;;2.60;1.35;;;11.20;99.90;;;;;;4431084;32;20142;-68
2022/04/21 09:11:51;;;;;;;0.40;0.40;;;11.10;99.90;;;;;;4428465;32;20074;-68
2022/04/21 09:14:17;;;;;;;0.90;0.90;;;11.00;99.90;;;;;;4428436;32;20069;-68
2022/04/21 09:16:43;;;;;;;3.60;0.93;;;11.00;99.90;;;;;;4430268;32;20081;-68
2022/04/21 09:19:08;;;;;;;0.82;0.82;;;11.00;99.90;;;;;;4433863;32;20153;-68
2022/04/21 09:21:37;;;;;;;0.43;0.43;;;11.00;99.90;;;;;;4432104;32;20058;-68
2022/04/21 09:24:22;;;;;;;9.65;1.17;;;11.00;99.90;;;;;;4432451;32;20074;-68
2022/04/21 09:26:47;;;;;;;7.53;1.95;;;11.00;99.90;;;;;;4429615;32;20164;-68
2022/04/21 09:29:31;;;;;;;1.37;0.90;;;11.00;99.90;;;;;;4429169;32;20089;-68
2022/04/21 09:31:58;;;;;;;0.70;0.70;;;11.10;99.90;;;;;;4427714;32;20472;-68
2022/04/21 09:34:24;;;;;;;0.50;0.50;;;11.20;99.90;;;;;;4429671;32;20077;-68
2022/04/21 09:36:49;;;;;;;0.47;0.47;;;11.30;99.90;;;;;;4430665;32;20152;-69
2022/04/21 09:39:15;;;;;;;1.08;0.70;;;11.50;99.90;;;;;;4430968;32;20403;-68
2022/04/21 09:41:44;;;;;;;2.78;0.98;;;11.50;99.90;;;;;;4430295;32;20419;-69
2022/04/21 09:46:11;;;;;;;0.55;0.55;;;11.50;99.90;;;;;;4424737;32;20120;-68
2022/04/21 09:46:57;;;;;;;1.05;0.88;;;11.60;99.90;;;;;;4421122;32;20090;-69
2022/04/21 09:49:41;;;;;;;2.53;1.33;;;11.60;99.90;;;;;;4431193;32;20053;-68
2022/04/21 09:52:07;;;;;;;0.35;0.35;;;11.60;99.90;;;;;;4433084;32;20512;-68
2022/04/21 09:54:34;;;;;;;0.52;0.52;;;11.50;99.90;;;;;;4430096;32;20123;-69
2022/04/21 09:57:01;;;;;;;0.50;0.50;;;11.50;99.90;;;;;;4431817;32;20176;-68
2022/04/21 09:59:26;;;;;;;1.33;1.10;;;11.50;99.90;;;;;;4432182;32;20102;-68
2022/04/21 10:01:52;;;;;;;0.93;0.93;;;11.50;99.90;;;;;;4431253;32;20073;-68
2022/04/21 10:04:18;;;;;;;1.25;0.93;;;11.60;99.90;;;;;;4425280;32;20078;-69
2022/04/21 10:06:44;;;;;;;1.02;0.70;;;11.80;99.90;;;;;;4431762;32;20077;-68
2022/04/21 10:09:11;;;;;;;0.50;0.50;;;11.90;99.90;;;;;;4433382;32;20080;-68
2022/04/21 10:11:38;;;;;;;9.90;2.05;;;11.90;99.90;;;;;;4427025;32;20068;-68
2022/04/21 10:14:05;;;;;;;0.95;0.88;;;11.80;99.90;;;;;;4426850;32;20579;-68
2022/04/21 10:16:32;;;;;;;1.98;1.02;;;11.70;99.90;;;;;;4428328;32;20092;-69
2022/04/21 10:18:59;;;;;;;1.02;0.95;;;11.70;99.90;;;;;;4432222;32;20085;-68
2022/04/21 10:21:33;;;;;;;1.45;0.88;;;11.50;99.90;;;;;;4430756;32;20062;-68
2022/04/21 10:23:59;;;;;;;2.75;1.50;;;11.50;99.90;;;;;;4431727;32;20069;-68
2022/04/21 10:26:42;;;;;;;0.88;0.88;;;11.50;99.90;;;;;;4431146;32;20513;-69
2022/04/21 10:29:12;;;;;;;0.52;0.52;;;11.50;99.90;;;;;;4430524;32;20576;-69
2022/04/21 10:31:49;;;;;;;0.82;0.77;;;11.50;99.90;;;;;;4427616;32;20098;-68
2022/04/21 10:34:37;;;;;;;0.62;0.50;;;11.40;99.90;;;;;;4429976;32;20436;-68
2022/04/21 10:37:22;;;;;;;0.68;0.68;;;11.30;99.90;;;;;;4429617;32;20082;-69
2022/04/21 10:40:07;;;;;;;0.62;0.60;;;11.40;99.90;;;;;;4432306;32;20080;-68
2022/04/21 10:42:55;;;;;;;1.02;0.80;;;11.40;99.90;;;;;;4422203;32;20470;-68
2022/04/21 10:45:23;;;;;;;0.82;0.82;;;11.40;99.90;;;;;;4423101;32;20082;-68
2022/04/21 10:48:10;;;;;;;0.77;0.77;;;11.40;99.90;;;;;;4430157;32;20104;-68
2022/04/21 10:50:37;;;;;;;0.80;0.62;;;11.50;99.90;;;;;;4423507;32;20069;-68
2022/04/21 10:57:20;;;;;;;0.55;0.55;;;11.50;99.90;;;;;;4420008;32;20073;-68
2022/04/21 10:58:37;;;;;;;0.50;0.50;;;11.50;99.90;;;;;;4425696;32;20061;-68
2022/04/21 11:01:08;;;;;;;0.65;0.65;;;11.50;99.90;;;;;;4426280;32;20084;-68
2022/04/21 11:03:34;;;;;;;2.17;0.80;;;11.50;99.90;;;;;;4430333;32;20081;-68
2022/04/21 11:06:07;;;;;;;1.15;1.05;;;11.50;99.90;;;;;;4431913;32;20093;-68
2022/04/21 11:08:33;;;;;;;0.57;0.57;;;11.50;99.90;;;;;;4426177;32;20077;-68
2022/04/21 11:10:59;;;;;;;0.50;0.50;;;11.60;99.90;;;;;;4426318;32;20153;-69
2022/04/21 11:13:59;;;;;;;0.95;0.70;;;11.50;99.90;;;;;;4418932;32;20081;-68
2022/04/21 11:16:45;;;;;;;18.73;1.37;;;11.50;99.90;;;;;;4423139;32;20447;-68
2022/04/21 11:19:32;;;;;;;1.23;0.75;;;11.60;99.90;;;;;;4428332;32;20073;-68
2022/04/21 11:22:00;;;;;;;0.85;0.80;;;11.70;99.90;;;;;;4427264;32;20073;-68
2022/04/21 11:24:26;;;;;;;0.45;0.45;;;11.70;99.90;;;;;;4426806;32;20070;-67
2022/04/21 11:26:54;;;;;;;5.82;0.93;;;11.80;99.90;;;;;;4431393;32;20135;-68
2022/04/21 11:29:19;;;;;;;2.22;0.88;;;12.10;99.90;;;;;;4427597;32;20073;-68
2022/04/21 11:31:45;;;;;;;0.93;0.70;;;12.20;99.90;;;;;;4430312;32;20070;-67
2022/04/21 11:34:10;;;;;;;0.95;0.70;;;12.30;99.90;;;;;;4429245;32;20077;-69
2022/04/21 11:36:40;;;;;;;1.08;0.85;;;12.30;99.90;;;;;;4435434;32;20089;-69
2022/04/21 11:39:07;;;;;;;0.80;0.57;;;12.40;99.90;;;;;;4428986;32;20061;-69
2022/04/21 11:41:33;;;;;;;1.33;1.08;;;12.40;99.90;;;;;;4430496;32;20081;-69
2022/04/21 11:44:00;;;;;;;0.80;0.70;;;12.50;99.90;;;;;;4420695;32;20077;-69
2022/04/21 11:46:25;;;;;;;0.50;0.50;;;12.50;99.90;;;;;;4429922;32;20120;-69
2022/04/21 11:49:00;;;;;;;1.33;0.60;;;12.40;99.90;;;;;;4428599;32;20116;-69
2022/04/21 11:51:26;;;;;;;0.50;0.50;;;12.40;99.90;;;;;;4430802;32;20081;-69
2022/04/21 11:53:52;;;;;;;2.70;0.82;;;12.40;99.90;;;;;;4428942;32;20563;-69
2022/04/21 11:56:18;;;;;;;0.60;0.60;;;12.50;99.90;;;;;;4430891;32;20064;-69
2022/04/21 11:58:44;;;;;;;0.88;0.50;;;12.50;99.90;;;;;;4428402;32;20076;-69
2022/04/21 12:06:28;;;;;;;0.37;0.37;;;12.70;99.90;;;;;;4417363;32;20860;-67
2022/04/21 12:06:52;;;;;;;0.40;0.40;;;12.80;99.90;;;;;;4421881;32;20089;-67
2022/04/21 12:09:21;;;;;;;2.83;1.05;;;12.90;99.90;;;;;;4424929;32;20131;-67
2022/04/21 12:11:49;;;;;;;1.15;1.05;;;12.90;99.90;;;;;;4426192;32;21325;-67
2022/04/21 12:14:16;;;;;;;11.10;0.80;;;12.90;99.90;;;;;;4422174;32;20430;-68
2022/04/21 12:16:45;;;;;;;0.43;0.43;;;12.90;99.90;;;;;;4430321;32;20085;-67
2022/04/21 12:19:32;;;;;;;0.85;0.55;;;12.90;99.90;;;;;;4429598;32;20119;-67
2022/04/21 12:22:07;;;;;;;1.08;0.73;;;12.80;99.90;;;;;;4418353;32;20073;-67
2022/04/21 12:24:38;;;;;;;0.62;0.62;;;12.80;99.90;;;;;;4432612;32;20070;-67
2022/04/21 12:27:11;;;;;;;1.27;0.95;;;12.60;99.90;;;;;;4429907;32;20541;-68
2022/04/21 12:29:46;;;;;;;2.35;1.12;;;12.60;99.90;;;;;;4431532;32;20185;-69
2022/04/21 12:32:12;;;;;;;0.60;0.60;;;12.60;99.90;;;;;;4430834;32;20424;-68
2022/04/21 12:34:40;;;;;;;0.45;0.45;;;12.70;99.90;;;;;;4430289;32;20320;-68
2022/04/21 12:37:07;;;;;;;4.68;1.20;;;12.70;99.90;;;;;;4430432;32;20089;-68
2022/04/21 12:39:33;;;;;;;0.40;0.40;;;12.80;99.90;;;;;;4425604;32;20061;-68
2022/04/21 12:42:01;;;;;;;0.62;0.40;;;12.80;99.90;;;;;;4426864;32;20068;-68
2022/04/21 12:44:27;;;;;;;0.45;0.45;;;12.80;99.90;;;;;;4426408;32;20069;-68
2022/04/21 12:46:58;;;;;;;0.45;0.45;;;12.80;99.90;;;;;;4429619;32;20462;-68
2022/04/21 12:49:44;;;;;;;7.45;1.12;;;12.70;99.90;;;;;;4428767;32;20057;-68
2022/04/21 12:52:10;;;;;;;0.40;0.40;;;12.60;99.90;;;;;;4424849;32;20068;-68
2022/04/21 12:54:36;;;;;;;1.50;1.10;;;12.60;99.90;;;;;;4431659;32;20119;-68
2022/04/21 12:57:02;;;;;;;0.88;0.77;;;12.70;99.90;;;;;;4428574;32;20513;-68
2022/04/21 12:59:27;;;;;;;0.40;0.40;;;12.70;99.90;;;;;;4430713;32;20068;-68
2022/04/21 13:01:52;;;;;;;0.55;0.55;;;12.70;99.90;;;;;;4427741;32;20568;-68
2022/04/21 13:04:18;;;;;;;0.50;0.50;;;12.70;99.90;;;;;;4427483;32;20077;-68
2022/04/21 13:06:44;;;;;;;1.87;0.60;;;12.50;99.90;;;;;;4427824;32;20065;-68
2022/04/21 13:09:10;;;;;;;0.35;0.35;;;12.50;99.90;;;;;;4427305;32;20082;-68
2022/04/21 13:11:36;;;;;;;0.70;0.70;;;12.50;99.90;;;;;;4427843;32;20072;-68